Forside
METAR-TAF:

METAR-TAF

Lufthavne :

Xi'an, Kina

Breddekreds: 34-26N, længdekreds: 108-45E, højde: 479 m

Aktuelle vejr

Denne rapport blev lavet for 45 minutter siden, kl. 02:00 UTC
Vind 10 kt fra nordøst, varierende mellem nord og østnordøst
Temperatur 28°C
Fugtighed 66%
Tryk 1013 hPa
Sigt 10 km eller mere
Overskyet i en højde af 5000 ft

METAR: ZLXY 160200Z 04005MPS 010V070 9999 OVC050 28/21 Q1013 NOSIG

Tid: 10:45 (02:45 UTC)

Vejrudsigter

Denne rapport blev lavet for 7 timer og 39 minutter siden, kl. 19:06 UTC
Foreløbig gælder fra 16 på 00 UTC til 16 på 24 UTC
Vind 8 kt fra østnordøst
Sigt: 3000 m
tåge/dis

TAF: ZLXY 151906Z 1600/1624 06004MPS 3000 HZ NSC TX35/1608Z TN24/1621Z

Vejrobservationer og prognoser fra mere end 4000 lufthavne (METAR og TAF).

De gule og røde prikker repræsenterer de meteorologiske stationer.

Flyt musen over at se navnet på stationen.

Så klik over at se vejr observationer og prognoser.

At skifte det kort: Klik på de grønne knapper med et sort kors for at zoome ind; på den grønne knap med en bindestreg for at zoome ud; eller på de grønne pile for tilstødende kort.


METAR-TAF: